Latest Weather Observations for Aireys Inlet

IDV60801

Issued at 8:02 pm EST Sunday 2 August 2015 (issued every 30 minutes, with the page automatically refreshed every 10 minutes)

About weather observations | Map of weather stations | Latest weather observations for VIC | Other Formats
Station Details ID: 090180 Name: AIREYS INLET Lat: -38.46 Lon: 144.09 Height: 95.0 m
Data from the previous 72 hours. | See also: Recent months at Aireys Inlet
Date/Time
EST
Temp
°C
App
Temp
°C
Dew
Point
Rel
Hum
%
Delta-T
°C
Wind Press
QNH
hPa
Press
MSL
hPa
Rain
since 9 am
mm
Dir
 
Spd
km/h
Gust
km/h
Spd
kts
Gust
kts
02/08:00pm 8.3 4.7 5.1 80 1.4 WNW 13 22 7 12 - - 0.6
02/07:30pm 8.3 5.5 5.2 81 1.4 W 9 17 5 9 - - 0.6
02/07:00pm 8.5 5.6 4.7 77 1.7 W 9 22 5 12 - - 0.6
02/06:30pm 9.1 3.3 4.5 73 2.0 W 24 41 13 22 - - 0.6
02/06:00pm 8.9 5.0 5.3 78 1.6 W 15 35 8 19 - - 0.6
02/05:30pm 9.0 3.4 5.4 78 1.6 W 24 41 13 22 - - 0.6
02/05:00pm 8.9 4.8 6.0 82 1.3 W 17 28 9 15 - - 0.6
02/04:30pm 9.0 4.4 6.4 84 1.2 WSW 20 33 11 18 - - 0.6
02/04:00pm 9.3 3.3 6.9 85 1.1 W 28 54 15 29 - - 0.6
02/03:55pm 9.3 3.0 7.4 88 0.9 W 30 48 16 26 - - 0.6
02/03:30pm 9.6 4.1 7.4 86 1.0 W 26 43 14 23 - - 0.6
02/03:06pm 9.6 3.6 7.2 85 1.1 W 28 54 15 29 - - 0.6
02/03:00pm 9.7 4.2 7.6 87 1.0 W 26 50 14 27 - - 0.6
02/02:30pm 9.8 5.1 7.9 88 0.9 W 22 41 12 22 - - 0.2
02/02:00pm 11.2 3.4 6.7 74 2.1 WNW 37 67 20 36 - - 0.0
02/01:35pm 12.6 6.3 5.8 63 3.2 WNW 28 61 15 33 - - 0.0
02/01:30pm 12.5 7.0 6.1 65 3.0 WNW 24 46 13 25 - - 0.0
02/01:00pm 11.7 3.6 5.3 65 3.0 WNW 37 61 20 33 - - 0.0
02/12:30pm 11.8 4.6 5.0 63 3.1 WNW 32 69 17 37 - - 0.0
02/12:00pm 11.4 4.9 4.8 64 3.0 NW 28 54 15 29 - - 0.0
02/11:30am 10.2 4.1 5.0 70 2.4 WNW 26 44 14 24 - - 0.0
02/11:16am 9.8 3.3 4.6 70 2.3 WNW 28 65 15 35 - - 0.0
02/11:00am 10.0 5.0 4.6 69 2.4 WNW 20 44 11 24 - - 0.0
02/10:30am 9.5 5.8 4.7 72 2.2 NNW 13 33 7 18 - - 0.0
02/10:00am 8.1 3.5 3.8 74 1.9 NW 17 35 9 19 - - 0.0
02/09:30am 7.5 2.5 3.4 75 1.8 NNW 19 37 10 20 - - 0.0
02/09:00am 6.9 1.8 3.0 76 1.6 NNW 19 28 10 15 - - 0.0
02/08:30am 6.1 0.0 2.7 79 1.4 NW 24 35 13 19 - - 0.0
02/08:00am 5.8 -1.1 2.6 80 1.3 NW 28 41 15 22 - - 0.0
02/07:30am 5.9 0.1 2.4 78 1.4 NW 22 43 12 23 - - 0.0
02/07:00am 6.3 -0.3 2.2 75 1.7 NW 26 43 14 23 - - 0.0
02/06:30am 6.5 -0.8 2.2 74 1.8 NW 30 46 16 25 - - 0.0
02/06:07am 6.6 -1.1 2.1 73 1.8 NW 32 50 17 27 - - 0.0
02/06:00am 6.6 -1.1 2.1 73 1.8 NW 32 50 17 27 - - 0.0
02/05:45am 6.5 -0.5 2.0 73 1.8 NW 28 50 15 27 - - 0.0
02/05:30am 6.5 -0.1 1.8 72 1.9 NW 26 39 14 21 - - 0.0
02/05:00am 6.3 2.1 1.8 73 1.8 NW 13 22 7 12 - - 0.0
02/04:30am 6.5 2.6 1.4 70 2.1 NW 11 19 6 10 - - 0.0
02/04:00am 7.1 3.2 1.2 66 2.4 NW 11 20 6 11 - - 0.0
02/03:30am 6.4 1.8 1.5 71 2.0 NNW 15 26 8 14 - - 0.0
02/03:00am 6.4 3.0 1.7 72 1.9 N 9 17 5 9 - - 0.0
02/02:30am 6.3 3.3 2.0 74 1.8 NNW 7 13 4 7 - - 0.0
02/02:00am 6.1 2.8 2.2 76 1.6 NNW 9 17 5 9 - - 0.0
02/01:30am 6.6 2.1 2.1 73 1.8 NW 15 24 8 13 - - 0.0
02/01:00am 6.4 3.4 2.3 75 1.7 N 7 19 4 10 - - 0.0
02/12:30am 6.3 3.4 2.4 76 1.6 N 7 11 4 6 - - 0.0
02/12:00am 6.8 3.9 2.5 74 1.8 NNW 7 17 4 9 - - 0.0
 
Date/Time
EST
Temp
°C
App
Temp
°C
Dew
Point
Rel
Hum
%
Delta-T
°C
Wind Press
QNH
hPa
Press
MSL
hPa
Rain
since 9 am
mm
Dir
 
Spd
km/h
Gust
km/h
Spd
kts
Gust
kts
01/11:30pm 7.4 4.1 2.5 71 2.0 NW 9 19 5 10 - - 0.0
01/11:00pm 6.8 3.2 2.7 75 1.7 NNW 11 15 6 8 - - 0.0
01/10:30pm 6.8 3.6 2.9 76 1.6 N 9 17 5 9 - - 0.0
01/10:00pm 6.5 3.3 2.9 78 1.5 N 9 13 5 7 - - 0.0
01/09:30pm 6.7 3.5 3.0 77 1.6 N 9 11 5 6 - - 0.0
01/09:00pm 7.3 4.6 2.8 73 1.9 NNW 6 9 3 5 - - 0.0
01/08:30pm 7.6 4.7 2.7 71 2.1 NW 7 9 4 5 - - 0.0
01/08:00pm 7.6 4.3 2.7 71 2.1 NW 9 11 5 6 - - 0.0
01/07:30pm 7.4 3.8 2.9 73 1.9 NW 11 15 6 8 - - 0.0
01/07:00pm 7.8 3.4 2.7 70 2.1 WNW 15 17 8 9 - - 0.0
01/06:30pm 8.2 4.1 2.4 67 2.4 WNW 13 17 7 9 - - 0.0
01/06:00pm 8.6 4.5 2.4 65 2.6 WNW 13 20 7 11 - - 0.0
01/05:30pm 8.9 4.8 2.3 63 2.8 WNW 13 19 7 10 - - 0.0
01/05:00pm 9.3 5.6 2.6 63 2.9 WNW 11 15 6 8 - - 0.0
01/04:30pm 9.4 6.6 3.4 66 2.6 NW 7 11 4 6 - - 0.0
01/04:00pm 9.9 6.6 2.7 61 3.1 WNW 9 13 5 7 - - 0.0
01/03:30pm 10.2 6.1 2.1 57 3.4 W 13 22 7 12 - - 0.0
01/03:00pm 10.5 5.2 2.1 56 3.6 W 19 26 10 14 - - 0.0
01/02:30pm 10.4 6.2 1.5 54 3.7 WSW 13 19 7 10 - - 0.0
01/02:00pm 11.6 7.4 1.8 51 4.2 W 13 20 7 11 - - 0.0
01/01:30pm 10.9 6.8 2.5 56 3.6 W 13 19 7 10 - - 0.0
01/01:00pm 10.9 7.1 1.7 53 3.9 WSW 11 17 6 9 - - 0.0
01/12:30pm 10.7 6.5 1.5 53 3.9 WSW 13 20 7 11 - - 0.0
01/12:00pm 10.4 4.5 2.0 56 3.6 WSW 22 32 12 17 - - 0.0
01/11:30am 10.2 6.7 3.3 62 3.0 WSW 11 17 6 9 - - 0.0
01/11:00am 9.9 5.5 2.7 61 3.1 WSW 15 26 8 14 - - 0.0
01/10:30am 10.2 6.9 4.6 68 2.5 WSW 11 19 6 10 - - 0.0
01/10:00am 9.5 6.7 5.3 75 1.9 WSW 9 15 5 8 - - 0.0
01/09:30am 9.0 5.0 5.0 76 1.8 WSW 15 22 8 12 - - 0.0
01/09:00am 8.7 4.7 4.9 77 1.7 W 15 20 8 11 - - 1.0
01/08:30am 8.4 3.7 5.0 79 1.5 WSW 19 24 10 13 - - 1.0
01/08:00am 8.1 3.5 5.7 85 1.1 WSW 19 32 10 17 - - 1.0
01/07:30am 8.6 3.8 7.2 91 0.7 SW 22 35 12 19 - - 1.0
01/07:00am 9.0 5.7 7.9 93 0.5 SW 15 30 8 16 - - 1.0
01/06:30am 9.3 3.6 8.2 93 0.5 WNW 28 44 15 24 - - 1.0
01/06:00am 8.8 1.6 7.7 93 0.5 WNW 35 52 19 28 - - 0.8
01/05:30am 9.2 0.0 7.8 91 0.7 NW 46 65 25 35 - - 0.4
01/05:00am 9.5 -0.7 7.1 85 1.1 NW 50 74 27 40 - - 0.2
01/04:30am 9.6 0.7 6.7 82 1.4 NW 43 70 23 38 - - 0.0
01/04:01am 10.6 1.3 5.2 69 2.5 NW 43 61 23 33 - - 0.0
01/04:00am 10.7 1.3 5.3 69 2.5 NW 44 61 24 33 - - 0.0
01/03:30am 10.5 2.6 4.6 67 2.7 NNW 35 63 19 34 - - 0.0
01/03:08am 10.2 3.3 4.4 67 2.6 NNW 30 52 16 28 - - 0.0
01/03:00am 10.0 4.2 4.2 67 2.6 NNW 24 54 13 29 - - 0.0
01/02:30am 9.5 6.8 3.9 68 2.5 NNW 7 17 4 9 - - 0.0
01/02:00am 8.8 5.7 3.4 69 2.3 N 9 30 5 16 - - 0.0
01/01:30am 8.3 4.3 3.0 69 2.3 NE 13 24 7 13 - - 0.0
01/01:00am 8.3 5.1 2.8 68 2.3 NE 9 15 5 8 - - 0.0
01/12:30am 8.7 4.6 2.5 65 2.6 N 13 24 7 13 - - 0.0
01/12:00am 8.5 4.9 2.7 67 2.5 NNE 11 19 6 10 - - 0.0
 
Date/Time
EST
Temp
°C
App
Temp
°C
Dew
Point
Rel
Hum
%
Delta-T
°C
Wind Press
QNH
hPa
Press
MSL
hPa
Rain
since 9 am
mm
Dir
 
Spd
km/h
Gust
km/h
Spd
kts
Gust
kts
31/11:30pm 8.5 3.3 2.5 66 2.5 NNE 19 32 10 17 - - 0.0
31/11:00pm 7.8 2.6 2.7 70 2.1 NNE 19 30 10 16 - - 0.0
31/10:30pm 7.2 2.8 2.9 74 1.8 NE 15 24 8 13 - - 0.0
31/10:00pm 7.8 2.7 3.1 72 2.0 NE 19 30 10 16 - - 0.0
31/09:30pm 7.7 3.7 2.8 71 2.1 NNE 13 19 7 10 - - 0.0
31/09:00pm 7.9 4.6 2.6 69 2.2 NE 9 19 5 10 - - 0.0
31/08:30pm 8.7 3.5 2.5 65 2.6 N 19 28 10 15 - - 0.0
31/08:00pm 8.7 2.9 2.3 64 2.7 NNW 22 35 12 19 - - 0.0
31/07:30pm 8.8 3.0 2.4 64 2.7 NNW 22 37 12 20 - - 0.0
31/07:00pm 8.8 2.4 3.0 67 2.5 NNW 26 41 14 22 - - 0.0
31/06:30pm 8.9 3.3 3.3 68 2.4 NNW 22 32 12 17 - - 0.0
31/06:00pm 9.1 3.8 3.1 66 2.6 NNW 20 33 11 18 - - 0.0
31/05:30pm 9.2 4.2 3.4 67 2.5 NNW 19 28 10 15 - - 0.0
31/05:00pm 9.9 6.1 3.9 66 2.7 NNW 13 20 7 11 - - 0.0
31/04:30pm 10.5 6.2 3.3 61 3.2 NNW 15 28 8 15 - - 0.0
31/04:00pm 11.0 7.5 3.3 59 3.4 NNW 11 22 6 12 - - 0.0
31/03:30pm 10.9 5.8 3.2 59 3.4 NNW 19 37 10 20 - - 0.0
31/03:00pm 10.6 5.2 2.4 57 3.5 NNW 20 33 11 18 - - 0.0
31/02:30pm 10.2 3.6 2.1 57 3.4 NW 26 39 14 21 - - 0.0
31/02:00pm 10.3 3.7 1.9 56 3.6 NNW 26 37 14 20 - - 0.0
31/01:30pm 11.1 7.0 2.4 55 3.8 NNW 13 32 7 17 - - 0.0
31/01:00pm 10.4 6.1 3.4 62 3.1 NW 15 26 8 14 - - 0.0
31/12:30pm 9.0 5.2 4.0 71 2.2 NW 13 24 7 13 - - 0.0
31/12:00pm 8.8 4.9 3.6 70 2.3 NW 13 22 7 12 - - 0.0
31/11:30am 8.1 3.4 3.4 72 2.0 NW 17 22 9 12 - - 0.0
31/11:00am 8.6 3.6 4.4 75 1.9 NW 20 28 11 15 - - 0.0
31/10:30am 7.6 1.3 3.6 76 1.7 NW 26 35 14 19 - - 0.0
31/10:00am 7.4 1.5 4.0 79 1.5 NW 24 32 13 17 - - 0.0
31/09:30am 6.8 1.2 3.6 80 1.4 NW 22 32 12 17 - - 0.0
31/09:00am 7.0 2.1 4.1 82 1.3 NW 19 24 10 13 - - 3.8
31/08:30am 5.7 1.9 3.7 87 0.8 NW 13 17 7 9 - - 3.8
31/08:00am 4.8 1.6 3.0 88 0.7 WNW 9 19 5 10 - - 3.8
31/07:30am 5.2 0.5 3.1 86 0.9 NW 17 20 9 11 - - 3.8
31/07:00am 4.4 -0.7 3.1 91 0.5 NW 19 24 10 13 - - 3.8
31/06:30am 5.2 0.2 3.4 88 0.8 NW 19 24 10 13 - - 3.8
31/06:00am 5.1 -0.5 3.4 89 0.7 NW 22 26 12 14 - - 3.8
31/05:30am 5.0 -0.2 3.3 89 0.7 NW 20 28 11 15 - - 3.8
31/05:00am 5.0 -0.2 3.5 90 0.6 NW 20 24 11 13 - - 3.8
31/04:30am 5.4 2.2 3.3 86 0.9 WNW 9 15 5 8 - - 3.8
31/04:00am 6.9 2.2 3.3 78 1.5 W 17 24 9 13 - - 3.8
31/03:30am 6.2 1.9 3.4 82 1.2 WNW 15 19 8 10 - - 3.8
31/03:00am 6.9 1.8 3.3 78 1.5 WNW 19 24 10 13 - - 3.8
31/02:30am 6.7 1.7 3.5 80 1.4 W 19 24 10 13 - - 3.8
31/02:00am 6.6 2.0 3.8 82 1.2 W 17 22 9 12 - - 3.8
31/01:30am 6.0 1.5 4.2 88 0.8 WNW 17 20 9 11 - - 3.8
31/01:00am 6.2 2.2 4.7 90 0.7 WNW 15 19 8 10 - - 3.8
31/12:30am 6.9 2.8 4.6 85 1.0 WNW 15 20 8 11 - - 3.8
31/12:00am 6.8 2.8 5.1 89 0.8 WNW 15 24 8 13 - - 3.8
 
Date/Time
EST
Temp
°C
App
Temp
°C
Dew
Point
Rel
Hum
%
Delta-T
°C
Wind Press
QNH
hPa
Press
MSL
hPa
Rain
since 9 am
mm
Dir
 
Spd
km/h
Gust
km/h
Spd
kts
Gust
kts
30/11:30pm 6.9 3.4 5.5 91 0.6 NW 13 17 7 9 - - 3.8
30/11:00pm 7.4 3.5 5.5 88 0.9 NW 15 19 8 10 - - 3.8
30/10:30pm 7.8 3.5 5.3 84 1.1 WNW 17 22 9 12 - - 3.8
30/10:00pm 8.0 3.2 5.6 85 1.1 WNW 20 30 11 16 - - 3.8
30/09:30pm 7.8 3.6 5.8 87 0.9 WNW 17 28 9 15 - - 3.8
30/09:00pm 7.8 3.0 5.8 87 0.9 WNW 20 30 11 16 - - 3.8
30/08:30pm 8.2 3.8 6.5 89 0.8 W 19 26 10 14 - - 3.6

Other Formats:

Comma delimited format used in spreadsheet applications
http://www.bom.gov.au/fwo/IDV60801/IDV60801.94846.axf

JavaScript Object Notation format (JSON) in row-major order
http://www.bom.gov.au/fwo/IDV60801/IDV60801.94846.json